Time;durP1;ratioP1;P1;durP2;ratioP2;P2;SDS_P1;SDS_P2;PMS_P1;PMS_P2;Temp;Humidity;BMP_temperature;BMP_pressure;BME280_temperature;BME280_humidity;BME280_pressure;Samples;Min_cycle;Max_cycle;Signal;HPM_P1;HPM_P2
2022/12/17 13:08:23;;;;;;;34.17;18.60;;;;;;;0.89;72.82;100607.33;1469492;86;22104;-88
2022/12/17 13:10:52;;;;;;;28.73;16.80;;;;;;;1.00;74.61;100614.12;1460271;88;21732;-87
2022/12/17 13:13:39;;;;;;;30.30;17.57;;;;;;;0.90;72.20;100616.38;1470308;88;21679;-87
2022/12/17 13:16:26;;;;;;;32.17;17.33;;;;;;;0.92;73.37;100628.48;1473757;88;21749;-87
2022/12/17 13:19:03;;;;;;;32.33;18.73;;;;;;;0.83;72.36;100630.64;1478061;88;22515;-85
2022/12/17 13:21:30;;;;;;;31.93;17.07;;;;;;;0.84;73.53;100636.25;1476457;88;21583;-89
2022/12/17 13:23:56;;;;;;;32.53;17.80;;;;;;;0.89;74.36;100638.16;1476652;88;21674;-90
2022/12/17 13:26:43;;;;;;;32.63;17.27;;;;;;;0.97;75.60;100640.81;1476985;88;21528;-89
2022/12/17 13:29:32;;;;;;;29.50;16.33;;;;;;;1.03;77.39;100643.09;1473022;88;21910;-88
2022/12/17 13:32:09;;;;;;;29.43;18.10;;;;;;;1.04;76.29;100643.03;1479585;88;21735;-87
2022/12/17 13:35:21;;;;;;;33.40;17.50;;;;;;;1.04;75.52;100654.75;1471943;88;21791;-87
2022/12/17 13:38:02;;;;;;;;;;;;;;;1.01;75.16;100664.51;1476159;88;21674;-89
2022/12/17 13:40:49;;;;;;;31.52;16.65;;;;;;;0.81;73.31;100659.03;1480335;88;20333;-88
2022/12/17 13:43:19;;;;;;;36.47;19.07;;;;;;;0.74;73.46;100660.25;1477576;88;21532;-90
2022/12/17 13:45:47;;;;;;;36.63;18.47;;;;;;;0.81;74.96;100662.94;1475044;88;22705;-88
2022/12/17 13:48:26;;;;;;;36.80;19.40;;;;;;;0.71;73.78;100669.06;1472752;88;21579;-89
2022/12/17 13:50:58;;;;;;;33.00;17.00;;;;;;;0.75;74.86;100672.34;1476701;88;22601;-87
2022/12/17 13:53:26;;;;;;;38.27;20.27;;;;;;;0.62;73.41;100680.80;1473756;88;21741;-89
2022/12/17 13:55:56;;;;;;;35.50;18.70;;;;;;;0.64;74.81;100693.76;1474498;88;21742;-89
2022/12/17 13:58:30;;;;;;;28.57;14.87;;;;;;;0.62;74.24;100695.13;1461615;88;21705;-88
2022/12/17 14:01:13;;;;;;;37.57;18.70;;;;;;;0.64;74.27;100709.39;1471484;88;21326;-89
2022/12/17 14:03:53;;;;;;;33.17;17.30;;;;;;;0.62;74.55;100724.25;1472165;88;21715;-89
2022/12/17 14:06:21;;;;;;;35.87;19.33;;;;;;;0.61;74.09;100732.53;1479487;88;21751;-88
2022/12/17 14:08:54;;;;;;;33.97;18.03;;;;;;;0.59;74.66;100738.73;1462413;88;21862;-88
2022/12/17 14:14:13;;;;;;;31.07;17.53;;;;;;;0.60;74.97;100739.94;1468395;88;21595;-89
2022/12/17 14:16:41;;;;;;;32.97;15.53;;;;;;;0.64;75.87;100744.55;1470186;88;21688;-92
2022/12/17 14:19:09;;;;;;;36.73;20.00;;;;;;;0.54;75.72;100752.43;1454288;88;21692;-90
2022/12/17 14:21:36;;;;;;;39.53;20.97;;;;;;;0.63;77.53;100753.27;1481039;88;21619;-90
2022/12/17 14:24:03;;;;;;;36.27;19.10;;;;;;;0.63;77.10;100758.05;1467131;88;21559;-89
2022/12/17 14:26:29;;;;;;;31.40;16.57;;;;;;;0.58;76.58;100769.61;1469373;88;21492;-88
2022/12/17 14:28:57;;;;;;;35.20;19.47;;;;;;;0.52;75.25;100775.09;1469834;88;21618;-89
2022/12/17 14:31:27;;;;;;;39.53;20.90;;;;;;;0.50;75.59;100787.38;1465074;88;21672;-89
2022/12/17 14:34:06;;;;;;;38.57;19.53;;;;;;;0.45;75.06;100801.44;1467651;88;22446;-88
2022/12/17 14:36:36;;;;;;;32.77;17.53;;;;;;;0.40;74.85;100811.26;1472242;88;21645;-90
2022/12/17 14:39:10;;;;;;;32.63;17.15;;;;;;;0.25;74.40;100827.58;1470187;88;22585;-90
2022/12/17 14:44:28;;;;;;;38.70;20.57;;;;;;;0.23;75.11;100839.81;1465536;88;21827;-87
2022/12/17 14:47:15;;;;;;;37.30;20.33;;;;;;;0.27;75.46;100833.58;1465121;88;21842;-92
2022/12/17 14:50:08;;;;;;;35.63;20.20;;;;;;;0.18;74.91;100838.75;1461393;88;22721;-90
2022/12/17 14:52:46;;;;;;;38.27;20.07;;;;;;;0.22;75.40;100844.66;1469428;88;21588;-90
2022/12/17 14:55:38;;;;;;;35.57;19.87;;;;;;;0.22;75.69;100842.05;1468234;88;21722;-89
2022/12/17 14:58:16;;;;;;;38.77;20.43;;;;;;;0.19;75.66;100845.63;1469297;88;21599;-89
2022/12/17 15:01:05;;;;;;;40.73;21.07;;;;;;;0.17;75.52;100851.82;1474050;88;22550;-91
2022/12/17 15:03:35;;;;;;;38.10;19.70;;;;;;;0.19;76.15;100851.30;1474916;88;21807;-92
2022/12/17 15:06:05;;;;;;;39.33;19.97;;;;;;;0.16;75.86;100848.84;1466837;88;21777;-90
2022/12/17 15:08:42;;;;;;;32.67;19.43;;;;;;;0.19;76.23;100848.70;1467990;88;21670;-89
2022/12/17 15:11:11;;;;;;;38.77;19.90;;;;;;;0.19;76.64;100857.81;1397706;88;21696;-89
2022/12/17 15:13:37;;;;;;;40.70;20.33;;;;;;;0.19;76.47;100864.31;1552987;88;21438;-89
2022/12/17 15:16:04;;;;;;;36.63;19.97;;;;;;;0.17;76.02;100870.91;1421255;88;22431;-88
2022/12/17 15:18:30;;;;;;;32.57;17.63;;;;;;;0.20;77.08;100879.02;1476525;88;21746;-85
2022/12/17 15:20:57;;;;;;;37.33;20.20;;;;;;;0.14;75.39;100881.90;1475528;88;21449;-84
2022/12/17 15:23:39;;;;;;;39.20;20.63;;;;;;;0.13;75.57;100878.92;1467198;88;21341;-85
2022/12/17 15:26:05;;;;;;;41.90;21.87;;;;;;;0.18;76.74;100875.66;1474645;88;21567;-86
2022/12/17 15:28:31;;;;;;;41.80;19.93;;;;;;;0.08;76.36;100871.77;1472760;88;22688;-86
2022/12/17 15:30:57;;;;;;;41.67;21.50;;;;;;;0.06;75.63;100870.98;1473218;88;21658;-87
2022/12/17 15:33:23;;;;;;;44.07;21.87;;;;;;;0.05;76.70;100878.42;1475226;88;21558;-86
2022/12/17 15:35:50;;;;;;;44.47;24.33;;;;;;;0.03;76.82;100888.05;1473053;88;21733;-87
2022/12/17 15:38:16;;;;;;;46.17;24.33;;;;;;;0.02;76.66;100898.08;1475200;88;21429;-88
2022/12/17 15:40:42;;;;;;;39.13;19.23;;;;;;;-0.01;75.99;100910.77;1474865;88;21551;-88
2022/12/17 15:43:10;;;;;;;44.27;22.77;;;;;;;-0.06;75.68;100914.89;1468213;88;21570;-88
2022/12/17 15:45:49;;;;;;;37.83;20.40;;;;;;;-0.09;75.72;100921.50;1469785;88;21690;-87
2022/12/17 15:48:22;;;;;;;46.83;24.07;;;;;;;-0.15;75.01;100933.48;1474468;88;22591;-85
2022/12/17 15:50:48;;;;;;;45.37;23.83;;;;;;;-0.11;76.15;100929.86;1394351;88;21626;-83
2022/12/17 15:53:15;;;;;;;40.53;22.50;;;;;;;-0.13;75.99;100938.17;1395101;88;21522;-85
2022/12/17 15:55:41;;;;;;;38.03;19.37;;;;;;;-0.12;76.26;100937.72;1559467;88;21397;-86
2022/12/17 15:58:10;;;;;;;46.83;24.07;;;;;;;-0.21;74.66;100938.12;1398678;88;21419;-88
2022/12/17 16:00:37;;;;;;;46.73;24.73;;;;;;;-0.20;75.78;100943.27;1395855;87;21376;-89
2022/12/17 16:03:03;;;;;;;44.77;23.97;;;;;;;-0.14;76.63;100943.00;1397632;88;21460;-89
2022/12/17 16:05:29;;;;;;;44.77;23.00;;;;;;;-0.12;76.50;100941.16;1398523;88;21582;-86
2022/12/17 16:07:57;;;;;;;44.77;23.37;;;;;;;-0.13;76.11;100942.08;1409485;88;21605;-88
2022/12/17 16:10:23;;;;;;;43.37;21.67;;;;;;;-0.10;76.54;100961.45;1428989;88;22265;-89
2022/12/17 16:12:49;;;;;;;42.53;23.37;;;;;;;-0.17;76.02;100972.19;1441748;89;21656;-87
2022/12/17 16:15:15;;;;;;;44.67;24.43;;;;;;;-0.18;75.61;100982.21;1475867;88;22218;-90
2022/12/17 16:17:41;;;;;;;41.77;20.03;;;;;;;-0.14;76.63;100993.73;1474252;88;21311;-89
2022/12/17 16:20:09;;;;;;;43.73;23.70;;;;;;;-0.14;76.64;100999.41;1475205;88;21571;-91
2022/12/17 16:22:36;;;;;;;46.73;23.33;;;;;;;-0.10;77.02;100997.89;1453738;88;21548;-90
2022/12/17 16:25:03;;;;;;;42.20;20.53;;;;;;;-0.13;75.34;101002.38;1470495;88;21583;-90
2022/12/17 16:27:29;;;;;;;43.23;21.60;;;;;;;-0.21;75.07;101016.16;1474751;88;21643;-86
2022/12/17 16:29:55;;;;;;;41.53;22.97;;;;;;;-0.18;75.77;101011.67;1471472;88;21594;-88
2022/12/17 16:32:22;;;;;;;39.93;20.77;;;;;;;-0.14;76.07;101028.86;1473804;88;21579;-87
2022/12/17 16:34:48;;;;;;;45.83;23.73;;;;;;;-0.23;74.78;101034.46;1474690;88;21761;-88
2022/12/17 16:37:14;;;;;;;42.93;21.37;;;;;;;-0.18;76.14;101038.99;1475134;88;21595;-88
2022/12/17 16:39:40;;;;;;;47.03;24.07;;;;;;;-0.16;76.00;101041.55;1474736;88;21392;-89
2022/12/17 16:42:06;;;;;;;45.23;23.70;;;;;;;-0.18;76.08;101042.89;1468856;88;21791;-86
2022/12/17 16:44:32;;;;;;;44.27;23.27;;;;;;;-0.25;76.52;101051.88;1455849;88;22373;-90
2022/12/17 16:46:58;;;;;;;43.10;23.63;;;;;;;-0.25;77.12;101054.48;1475341;88;21648;-86
2022/12/17 16:49:24;;;;;;;50.17;24.93;;;;;;;-0.36;75.70;101055.38;1474511;88;21473;-88
2022/12/17 16:51:52;;;;;;;45.93;21.90;;;;;;;-0.40;76.54;101054.66;1475233;88;22053;-87
2022/12/17 16:54:22;;;;;;;47.80;24.17;;;;;;;-0.44;76.61;101055.67;1469813;88;21634;-87
2022/12/17 16:56:49;;;;;;;39.45;20.45;;;;;;;-0.40;77.46;101061.16;1455090;88;22535;-86
2022/12/17 16:59:16;;;;;;;52.43;25.90;;;;;;;-0.42;77.48;101066.03;1474303;88;21378;-88
2022/12/17 17:01:46;;;;;;;53.60;27.30;;;;;;;-0.42;77.48;101075.97;1474467;88;21591;-90
2022/12/17 17:04:16;;;;;;;44.87;24.87;;;;;;;-0.42;77.91;101082.93;1479197;88;21441;-87
2022/12/17 17:06:47;;;;;;;51.67;26.13;;;;;;;-0.49;78.05;101082.30;1469634;88;22409;-87
2022/12/17 17:09:14;;;;;;;62.67;33.02;;;;;;;-0.47;78.12;101076.14;1472678;88;21947;-89
2022/12/17 17:11:40;;;;;;;56.60;27.20;;;;;;;-0.41;79.44;101078.11;1477029;88;21342;-84
2022/12/17 17:14:07;;;;;;;60.57;31.97;;;;;;;-0.41;80.20;101081.55;1473332;88;21557;-88
2022/12/17 17:16:34;;;;;;;59.30;31.30;;;;;;;-0.40;79.86;101091.49;1471531;88;21656;-90
2022/12/17 17:19:02;;;;;;;56.33;29.53;;;;;;;-0.40;80.69;101088.89;1473327;88;21595;-90
2022/12/17 17:21:33;;;;;;;60.23;29.27;;;;;;;-0.49;80.11;101080.58;1474309;88;21617;-88
2022/12/17 17:24:09;;;;;;;63.15;33.45;;;;;;;-0.50;80.20;101086.67;1474411;88;21588;-87
2022/12/17 17:26:35;;;;;;;60.30;30.63;;;;;;;-0.48;81.21;101087.46;1456535;88;21384;-89
2022/12/17 17:29:02;;;;;;;69.20;33.87;;;;;;;-0.53;81.22;101093.30;1474657;88;21621;-86
2022/12/17 17:31:28;;;;;;;64.50;31.07;;;;;;;-0.56;81.30;101097.77;1471269;88;21602;-86
2022/12/17 17:33:55;;;;;;;68.70;33.90;;;;;;;-0.66;81.40;101101.20;1475597;88;21595;-87
2022/12/17 17:36:24;;;;;;;65.83;31.77;;;;;;;-0.73;81.72;101116.16;1475595;88;21973;-87
2022/12/17 17:38:53;;;;;;;67.53;34.43;;;;;;;-0.75;81.71;101112.80;1474133;88;21536;-87
2022/12/17 17:41:22;;;;;;;65.17;32.93;;;;;;;-0.70;82.59;101119.94;1475511;88;22483;-88
2022/12/17 17:43:59;;;;;;;65.07;32.37;;;;;;;-0.74;81.91;101113.64;1474100;88;22683;-87
2022/12/17 17:46:28;;;;;;;63.43;29.97;;;;;;;-0.76;82.47;101118.04;1470085;88;21815;-89
2022/12/17 17:48:59;;;;;;;66.70;33.73;;;;;;;-0.85;82.28;101114.04;1478715;88;21619;-87
2022/12/17 17:51:31;;;;;;;;;;;;;;;-0.81;82.73;101117.36;1476039;88;21783;-87
2022/12/17 17:54:00;;;;;;;72.27;32.37;;;;;;;-0.86;82.65;101120.58;1475482;88;20431;-87
2022/12/17 17:56:30;;;;;;;67.27;31.90;;;;;;;-0.85;83.04;101119.70;1476343;88;21592;-87
2022/12/17 17:59:10;;;;;;;68.10;32.93;;;;;;;-0.85;83.94;101117.94;1476684;88;21585;-88
2022/12/17 18:01:43;;;;;;;67.83;31.93;;;;;;;-0.81;83.27;101118.20;1476994;88;22449;-88
2022/12/17 18:04:13;;;;;;;72.43;34.03;;;;;;;-0.86;82.31;101120.58;1475593;88;22609;-88
2022/12/17 18:06:41;;;;;;;62.03;32.80;;;;;;;-0.88;83.06;101120.66;1473220;88;21383;-85
2022/12/17 18:09:08;;;;;;;65.27;30.67;;;;;;;-0.91;82.87;101128.11;1471217;88;21733;-87
2022/12/17 18:11:35;;;;;;;61.77;26.53;;;;;;;-0.97;82.96;101130.94;1471878;88;22531;-86
2022/12/17 18:14:04;;;;;;;62.37;31.33;;;;;;;-0.94;82.57;101134.72;1473915;88;21560;-86
2022/12/17 18:16:41;;;;;;;82.07;39.83;;;;;;;-0.89;83.28;101146.68;1455891;88;21682;-86
2022/12/17 18:19:17;;;;;;;70.00;32.83;;;;;;;-0.85;83.63;101148.28;1474750;88;21776;-87
2022/12/17 18:21:43;;;;;;;63.13;30.47;;;;;;;-0.85;82.94;101158.68;1472680;88;21549;-86
2022/12/17 18:24:14;;;;;;;60.20;30.10;;;;;;;-0.87;83.36;101158.72;1459197;88;21573;-87
2022/12/17 18:26:43;;;;;;;63.52;32.08;;;;;;;-0.92;82.60;101156.31;1474133;88;21653;-86
2022/12/17 18:29:14;;;;;;;64.90;32.60;;;;;;;-0.95;83.04;101170.72;1472554;88;22448;-86
2022/12/17 18:31:40;;;;;;;76.47;36.88;;;;;;;-0.94;83.35;101181.95;1478507;88;21789;-87
2022/12/17 18:34:09;;;;;;;70.63;36.53;;;;;;;-0.88;84.00;101183.48;1480555;88;21370;-87
2022/12/17 18:36:40;;;;;;;74.13;34.43;;;;;;;-0.89;84.25;101192.16;1474526;88;21780;-86
2022/12/17 18:39:20;;;;;;;62.83;28.33;;;;;;;-0.82;84.61;101197.09;1473671;88;22747;-87
2022/12/17 18:44:36;;;;;;;70.23;35.47;;;;;;;-0.86;82.87;101207.64;1478064;88;21639;-86
2022/12/17 18:47:02;;;;;;;56.77;26.93;;;;;;;-0.87;82.95;101209.86;1474967;88;21463;-86
2022/12/17 18:49:28;;;;;;;64.67;31.70;;;;;;;-0.93;81.89;101223.46;1474368;88;23009;-87
2022/12/17 18:51:55;;;;;;;68.23;31.30;;;;;;;-0.91;82.56;101234.66;1476540;88;21698;-86
2022/12/17 18:54:27;;;;;;;75.53;36.97;;;;;;;-0.91;81.99;101237.26;1473996;88;21587;-86
2022/12/17 18:56:56;;;;;;;68.47;32.97;;;;;;;-0.86;82.75;101237.11;1474796;88;21672;-86
2022/12/17 18:59:26;;;;;;;67.60;33.77;;;;;;;-0.92;82.03;101235.57;1474996;88;21499;-87
2022/12/17 19:01:55;;;;;;;64.90;31.77;;;;;;;-0.91;82.42;101238.55;1459698;88;21819;-85
2022/12/17 19:04:22;;;;;;;76.30;36.43;;;;;;;-0.89;82.34;101245.02;1473595;88;22564;-87
2022/12/17 19:06:54;;;;;;;64.13;32.03;;;;;;;-0.89;81.87;101247.61;1470993;88;21588;-86
2022/12/17 19:09:27;;;;;;;61.90;27.33;;;;;;;-0.88;81.93;101261.45;1473489;88;22740;-87
2022/12/17 19:11:55;;;;;;;67.53;34.47;;;;;;;-0.94;80.54;101261.21;1475195;88;21699;-86
2022/12/17 19:14:22;;;;;;;72.93;37.23;;;;;;;-1.03;81.33;101271.48;1471875;88;21753;-86
2022/12/17 19:16:50;;;;;;;67.20;34.10;;;;;;;-1.00;81.94;101268.77;1475594;88;21536;-87
2022/12/17 19:19:17;;;;;;;68.53;33.07;;;;;;;-0.97;82.29;101269.96;1396510;88;21421;-87
2022/12/17 19:21:44;;;;;;;69.53;34.87;;;;;;;-0.95;82.54;101274.66;1396917;88;21687;-86
2022/12/17 19:24:16;;;;;;;63.57;29.50;;;;;;;-0.90;82.88;101278.38;1398852;88;21418;-87
2022/12/17 19:26:43;;;;;;;68.33;34.77;;;;;;;-0.96;81.92;101278.14;1394861;88;21347;-88
2022/12/17 19:29:12;;;;;;;63.57;31.97;;;;;;;-0.94;82.19;101284.14;1398056;88;21605;-87
2022/12/17 19:31:40;;;;;;;71.17;33.33;;;;;;;-0.99;81.55;101287.80;1396705;88;21587;-87
2022/12/17 19:34:11;;;;;;;66.63;33.50;;;;;;;-0.94;81.86;101294.54;1396681;88;21315;-89
2022/12/17 19:39:31;;;;;;;65.13;32.30;;;;;;;-1.05;81.05;101292.76;1494098;91;21451;-87
2022/12/17 19:41:57;;;;;;;68.13;31.40;;;;;;;-1.04;81.56;101295.74;1539193;88;21657;-87
2022/12/17 19:44:23;;;;;;;70.83;32.70;;;;;;;-1.08;81.78;101298.52;1398607;88;21468;-86
2022/12/17 19:46:50;;;;;;;62.87;30.37;;;;;;;-1.11;82.06;101305.12;1403935;88;21563;-87
2022/12/17 19:52:21;;;;;;;69.47;32.97;;;;;;;-1.17;82.50;101300.97;1535055;89;21353;-86
2022/12/17 19:54:47;;;;;;;71.87;35.40;;;;;;;-1.04;81.96;101317.83;1464266;89;21669;-88
2022/12/17 19:57:14;;;;;;;60.53;30.80;;;;;;;-1.06;81.77;101319.66;1467542;89;21640;-89
2022/12/17 19:59:40;;;;;;;70.53;32.67;;;;;;;-1.08;81.57;101322.74;1463307;89;22461;-89
2022/12/17 20:02:08;;;;;;;63.53;32.30;;;;;;;-1.08;81.80;101333.13;1465514;89;21434;-88
2022/12/17 20:04:34;;;;;;;65.20;30.63;;;;;;;-1.03;82.57;101338.19;1462986;89;22537;-87
2022/12/17 20:07:00;;;;;;;64.00;29.90;;;;;;;-1.00;82.36;101341.53;1467906;89;21855;-88
2022/12/17 20:09:26;;;;;;;60.17;29.80;;;;;;;-1.05;80.80;101346.02;1465422;89;22686;-88
2022/12/17 20:11:54;;;;;;;71.13;33.97;;;;;;;-1.02;81.38;101343.32;1465121;89;21472;-89
2022/12/17 20:14:25;;;;;;;62.70;29.50;;;;;;;-0.97;81.79;101350.52;1466851;89;21761;-88
2022/12/17 20:16:58;;;;;;;62.45;30.97;;;;;;;-0.95;81.69;101353.92;1466269;89;22651;-89
2022/12/17 20:19:33;;;;;;;60.47;31.63;;;;;;;-0.93;81.53;101356.00;1462753;89;21317;-89
2022/12/17 20:22:03;;;;;;;64.77;32.10;;;;;;;-0.95;81.21;101357.83;1468332;88;22051;-88
2022/12/17 20:24:30;;;;;;;70.40;34.53;;;;;;;-0.89;81.52;101359.79;1476972;88;22540;-89
2022/12/17 20:26:57;;;;;;;64.07;33.03;;;;;;;-0.87;81.62;101361.90;1555877;88;21519;-87
2022/12/17 20:29:24;;;;;;;57.90;29.83;;;;;;;-0.89;80.89;101371.48;1398446;88;22417;-88
2022/12/17 20:31:52;;;;;;;56.80;27.87;;;;;;;-0.96;80.47;101378.19;1397257;88;22428;-86
2022/12/17 20:34:19;;;;;;;61.77;30.20;;;;;;;-0.99;79.51;101386.09;1383953;89;21289;-88
2022/12/17 20:36:45;;;;;;;58.53;29.00;;;;;;;-0.93;80.52;101392.38;1436442;88;21563;-88
2022/12/17 20:39:11;;;;;;;48.37;23.63;;;;;;;-0.89;80.71;101396.18;1472368;88;22542;-87
2022/12/17 20:41:39;;;;;;;65.03;31.57;;;;;;;-0.95;80.04;101399.41;1473971;88;22114;-87
2022/12/17 20:44:09;;;;;;;58.33;29.37;;;;;;;-0.89;80.74;101400.08;1476143;88;21589;-88
2022/12/17 20:46:36;;;;;;;61.68;31.97;;;;;;;-0.96;78.90;101405.48;1474759;88;21603;-88
2022/12/17 20:49:04;;;;;;;53.77;28.23;;;;;;;-0.95;79.32;101407.20;1474851;88;21459;-88
2022/12/17 20:51:30;;;;;;;56.60;27.90;;;;;;;-0.92;79.24;101411.00;1397172;88;21529;-89
2022/12/17 20:53:59;;;;;;;61.60;31.30;;;;;;;-0.92;79.24;101417.49;1401658;88;21340;-91
2022/12/17 20:56:30;;;;;;;59.67;29.60;;;;;;;-0.94;79.06;101418.44;1512836;88;21388;-87
2022/12/17 20:59:01;;;;;;;56.75;29.67;;;;;;;-0.91;79.37;101423.53;1476019;88;21630;-87
2022/12/17 21:01:30;;;;;;;54.13;28.75;;;;;;;-0.94;79.03;101428.38;1469822;88;22175;-90
2022/12/17 21:03:57;;;;;;;59.83;26.93;;;;;;;-0.97;78.49;101431.08;1474804;88;21341;-89
2022/12/17 21:06:31;;;;;;;55.70;28.67;;;;;;;-0.94;78.72;101440.08;1470665;88;21685;-89
2022/12/17 21:08:57;;;;;;;51.40;24.97;;;;;;;-0.97;77.99;101449.27;1473015;88;22635;-87
2022/12/17 21:11:26;;;;;;;48.73;25.03;;;;;;;-0.91;79.17;101452.97;1457541;88;22336;-89
2022/12/17 21:13:54;;;;;;;47.00;25.60;;;;;;;-0.85;79.36;101455.82;1474064;88;21636;-89
2022/12/17 21:16:27;;;;;;;50.23;24.47;;;;;;;-0.91;78.96;101452.97;1472362;88;21606;-88
2022/12/17 21:18:55;;;;;;;53.27;24.93;;;;;;;-0.92;78.36;101461.67;1474621;88;21515;-89
2022/12/17 21:21:26;;;;;;;57.27;27.80;;;;;;;-0.99;77.26;101461.91;1478557;88;21508;-90
2022/12/17 21:23:52;;;;;;;52.67;26.65;;;;;;;-0.95;78.09;101470.87;1476845;88;21679;-90
2022/12/17 21:26:27;;;;;;;49.43;24.90;;;;;;;-0.97;78.18;101473.11;1477261;88;21296;-88
2022/12/17 21:28:55;;;;;;;46.03;21.07;;;;;;;-1.01;77.63;101470.19;1475114;88;22475;-86
2022/12/17 21:31:32;;;;;;;49.20;24.70;;;;;;;-1.06;76.96;101484.64;1476622;88;21578;-90
2022/12/17 21:34:01;;;;;;;46.73;24.20;;;;;;;-0.96;77.79;101480.84;1474144;88;22457;-89
2022/12/17 21:36:29;;;;;;;46.73;21.03;;;;;;;-1.02;77.84;101483.64;1476992;88;21677;-90
2022/12/17 21:38:55;;;;;;;52.03;25.93;;;;;;;-0.99;77.80;101482.70;1475759;88;21532;-90
2022/12/17 21:41:27;;;;;;;51.17;23.83;;;;;;;-0.99;77.91;101484.84;1473423;88;21802;-89
2022/12/17 21:44:00;;;;;;;50.23;25.27;;;;;;;-0.99;77.89;101490.03;1476735;88;21534;-91
2022/12/17 21:46:27;;;;;;;50.03;25.03;;;;;;;-0.96;78.83;101492.53;1536689;88;21718;-90
2022/12/17 21:48:55;;;;;;;52.93;25.77;;;;;;;-0.98;78.30;101493.05;1494724;88;21665;-89
2022/12/17 21:51:22;;;;;;;58.77;25.30;;;;;;;-0.95;78.49;101490.36;1559411;88;21307;-90
2022/12/17 21:53:56;;;;;;;46.67;23.10;;;;;;;-0.93;78.36;101501.53;1456533;88;21680;-88
2022/12/17 21:56:22;;;;;;;47.23;24.63;;;;;;;-0.90;78.48;101501.89;1476036;88;21697;-87
2022/12/17 21:58:49;;;;;;;45.20;22.23;;;;;;;-0.89;78.41;101506.63;1458345;88;21624;-87
2022/12/17 22:01:24;;;;;;;48.67;23.57;;;;;;;-0.94;78.04;101518.50;1476853;88;21571;-82
2022/12/17 22:03:53;;;;;;;39.93;19.60;;;;;;;-0.91;78.71;101520.54;1476398;88;22521;-81
2022/12/17 22:06:23;;;;;;;48.93;25.70;;;;;;;-1.00;77.91;101522.13;1400966;88;21510;-81
2022/12/17 22:08:49;;;;;;;43.68;19.55;;;;;;;-0.96;78.55;101519.83;1500775;88;21566;-80
2022/12/17 22:11:23;;;;;;;52.47;26.30;;;;;;;-0.97;78.34;101529.83;1404731;88;21474;-81
2022/12/17 22:14:01;;;;;;;44.57;21.60;;;;;;;-0.96;78.64;101527.63;1537654;88;21241;-81
2022/12/17 22:16:31;;;;;;;50.53;23.57;;;;;;;-0.94;78.94;101534.09;1559194;88;21229;-81
2022/12/17 22:18:59;;;;;;;39.60;19.60;;;;;;;-0.94;78.90;101531.03;1553361;88;21425;-80
2022/12/17 22:21:26;;;;;;;49.13;23.60;;;;;;;-0.96;78.35;101535.42;1395327;88;21725;-81
2022/12/17 22:23:52;;;;;;;46.60;24.20;;;;;;;-0.97;78.85;101544.12;1394346;88;22405;-82
2022/12/17 22:26:19;;;;;;;46.23;23.07;;;;;;;-0.92;79.27;101541.40;1395168;88;21406;-80
2022/12/17 22:28:49;;;;;;;47.27;22.13;;;;;;;-0.86;79.41;101545.53;1394494;88;21470;-81
2022/12/17 22:34:04;;;;;;;48.83;24.20;;;;;;;-0.91;79.17;101538.73;1396549;88;21665;-81
2022/12/17 22:36:32;;;;;;;47.80;23.73;;;;;;;-0.87;79.37;101552.94;1395315;88;21575;-81
2022/12/17 22:39:09;;;;;;;48.00;24.87;;;;;;;-0.84;79.76;101561.94;1399174;88;21511;-80
2022/12/17 22:44:20;;;;;;;55.23;25.00;;;;;;;-0.93;79.06;101562.61;1555119;88;22355;-82
2022/12/17 22:46:46;;;;;;;50.50;23.80;;;;;;;-0.91;79.23;101569.92;1395354;88;22415;-81
2022/12/17 22:49:13;;;;;;;48.53;22.93;;;;;;;-0.99;78.92;101575.80;1461275;88;21326;-80
2022/12/17 22:51:40;;;;;;;46.97;23.30;;;;;;;-0.94;79.33;101572.62;1380552;90;21463;-80
2022/12/17 22:54:06;;;;;;;55.63;28.10;;;;;;;-0.89;80.13;101578.11;1394066;88;22227;-79
2022/12/17 22:56:35;;;;;;;45.53;23.63;;;;;;;-0.93;79.65;101576.06;1401805;88;21541;-82
2022/12/17 22:59:01;;;;;;;51.47;26.57;;;;;;;-0.90;79.75;101579.86;1392827;88;21468;-81
2022/12/17 23:01:27;;;;;;;51.23;25.20;;;;;;;-0.88;79.73;101581.13;1399590;88;21468;-80
2022/12/17 23:03:57;;;;;;;50.23;25.47;;;;;;;-0.85;80.22;101584.48;1397015;88;21528;-82
2022/12/17 23:06:23;;;;;;;44.80;22.93;;;;;;;-0.83;79.92;101584.45;1391999;88;22286;-80
2022/12/17 23:08:49;;;;;;;52.77;26.30;;;;;;;-0.81;80.07;101589.13;1395154;88;21483;-82
2022/12/17 23:11:19;;;;;;;45.97;22.57;;;;;;;-0.79;80.05;101591.25;1401003;88;21497;-82
2022/12/17 23:13:46;;;;;;;46.90;22.07;;;;;;;-0.85;79.33;101600.53;1557802;88;21541;-82
2022/12/17 23:16:13;;;;;;;48.63;24.17;;;;;;;-0.83;79.71;101600.89;1398584;88;22270;-81
2022/12/17 23:18:40;;;;;;;44.63;23.63;;;;;;;-0.83;79.94;101600.05;1556680;88;21310;-81
2022/12/17 23:21:11;;;;;;;45.47;21.57;;;;;;;-0.84;79.75;101607.42;1402644;88;21504;-82
2022/12/17 23:23:37;;;;;;;45.67;25.52;;;;;;;-0.89;79.49;101609.30;1559027;88;21506;-80
2022/12/17 23:26:17;;;;;;;49.93;23.87;;;;;;;-0.86;80.13;101625.68;1397816;88;21252;-81
2022/12/17 23:28:46;;;;;;;47.37;22.53;;;;;;;-0.86;79.97;101619.61;1400015;88;21495;-81
2022/12/17 23:31:20;;;;;;;45.23;22.43;;;;;;;-0.86;80.00;101636.50;1558875;88;22273;-80
2022/12/17 23:33:46;;;;;;;47.73;21.53;;;;;;;-0.91;79.74;101644.00;1396331;88;22485;-81
2022/12/17 23:36:17;;;;;;;47.50;23.83;;;;;;;-0.88;79.91;101639.61;1383558;89;21652;-82
2022/12/17 23:38:44;;;;;;;53.00;27.05;;;;;;;-0.87;80.38;101642.16;1558352;88;21472;-80
2022/12/17 23:41:18;;;;;;;45.67;21.40;;;;;;;-0.86;80.87;101641.70;1397641;88;21394;-81
2022/12/17 23:43:46;;;;;;;49.63;24.57;;;;;;;-0.92;80.23;101647.95;1557805;88;21529;-79
2022/12/17 23:46:13;;;;;;;45.50;21.93;;;;;;;-0.94;80.36;101649.28;1402621;88;21479;-79
2022/12/17 23:48:43;;;;;;;45.73;24.40;;;;;;;-0.98;80.29;101658.50;1423316;88;22373;-82
2022/12/17 23:51:10;;;;;;;47.70;21.00;;;;;;;-1.03;80.22;101658.65;1394626;88;21491;-82
2022/12/17 23:53:37;;;;;;;47.23;23.77;;;;;;;-1.02;80.63;101661.64;1421060;88;21627;-80
2022/12/17 23:56:14;;;;;;;54.93;24.90;;;;;;;-1.04;80.59;101659.52;1463532;88;22409;-82
2022/12/17 23:58:43;;;;;;;45.13;22.37;;;;;;;-1.05;80.79;101663.03;1470885;88;21624;-82
